Bradley, Michigan
Current Conditions -  °F | °C
As of 9:53 PM on Friday 19 Dec 2014 (Local Time) from KGRR Reporting Station
Few Clouds Few Clouds  
Wind Chill: 22°   Ceiling: Unl
Heat Index: 22°   Visibility: 10mi
Dew Point: 18°   Wind: 3mph
Humidity: 85%   Direction: 120°ESE
Pressure: 30.26"   Gusts: NA
Location:  42.63°N, 85.64°W
Report Text: KGRR 200253Z 12003KT 10SM FEW220 M06/M08 A3026 RMK AO2 SLP257 T10561078 58016
Loading
Personal Weather Stations






























Interactive Weather Map New forecast layout! Learn more

10-Day Weather Forecast

Advertisements
Track Severe Weather on mobile